Time;durP1;ratioP1;P1;durP2;ratioP2;P2;SDS_P1;SDS_P2;PMS_P1;PMS_P2;Temp;Humidity;BMP_temperature;BMP_pressure;BME280_temperature;BME280_humidity;BME280_pressure;Samples;Min_cycle;Max_cycle;Signal;HPM_P1;HPM_P2
2021/11/11 00:02:13;;;;;;;222.50;150.40;;;;;;;2.95;77.02;101360.60;108371;1283;22000;-75
2021/11/11 00:04:43;;;;;;;227.40;157.50;;;;;;;2.95;76.98;101360.08;108218;1283;22619;-75
2021/11/11 00:07:15;;;;;;;210.60;146.20;;;;;;;2.93;76.99;101364.58;108456;1283;21989;-74
2021/11/11 00:09:44;;;;;;;187.60;132.10;;;;;;;2.90;77.09;101360.75;108364;1280;23603;-75
2021/11/11 00:12:17;;;;;;;212.90;139.70;;;;;;;2.88;77.11;101355.63;108738;1280;21996;-75
2021/11/11 00:14:48;;;;;;;169.80;120.00;;;;;;;2.87;77.25;101351.89;108715;1280;23818;-75
2021/11/11 00:17:18;;;;;;;192.90;134.60;;;;;;;2.85;77.23;101349.93;108753;1280;23688;-74
2021/11/11 00:19:48;;;;;;;172.40;122.40;;;;;;;2.81;77.26;101348.08;108549;1280;23738;-73
2021/11/11 00:22:17;;;;;;;160.40;114.00;;;;;;;2.77;77.25;101346.39;108677;1280;21990;-75
2021/11/11 00:24:46;;;;;;;144.90;107.30;;;;;;;2.72;77.33;101344.11;108551;1280;22441;-75
2021/11/11 00:27:16;;;;;;;159.70;111.90;;;;;;;2.68;77.56;101347.97;108704;1280;21990;-75
2021/11/11 00:29:45;;;;;;;159.40;111.40;;;;;;;2.68;77.53;101353.23;108215;1286;23118;-75
2021/11/11 00:32:15;;;;;;;150.20;107.30;;;;;;;2.66;77.63;101355.04;108173;1286;21999;-75
2021/11/11 00:34:45;;;;;;;152.60;106.60;;;;;;;2.65;77.65;101353.52;108333;1286;21987;-76
2021/11/11 00:37:15;;;;;;;149.90;102.50;;;;;;;2.65;77.73;101351.48;108199;1286;22104;-76
2021/11/11 00:39:47;;;;;;;151.10;102.90;;;;;;;2.67;77.87;101354.33;108628;1286;22500;-76
2021/11/11 00:42:18;;;;;;;160.90;110.30;;;;;;;2.72;78.13;101353.79;108626;1286;23602;-76
2021/11/11 00:44:49;;;;;;;165.70;112.70;;;;;;;2.78;78.09;101353.63;108126;1289;23640;-75
2021/11/11 00:47:18;;;;;;;162.50;110.40;;;;;;;2.80;77.73;101355.05;107862;1289;23823;-75
2021/11/11 00:49:49;;;;;;;148.60;106.10;;;;;;;2.81;77.58;101358.33;107975;1289;22932;-75
2021/11/11 00:52:20;;;;;;;135.60;97.70;;;;;;;2.82;77.58;101358.92;107723;1294;23019;-75
2021/11/11 00:54:49;;;;;;;135.90;98.70;;;;;;;2.85;77.65;101358.27;107834;1288;23063;-75
2021/11/11 00:57:36;;;;;;;128.40;92.20;;;;;;;2.85;77.58;101357.75;107761;1292;22231;-75
2021/11/11 01:00:11;;;;;;;145.00;105.80;;;;;;;2.85;77.52;101354.45;107742;1292;23765;-76
2021/11/11 01:02:44;;;;;;;125.20;90.50;;;;;;;2.85;77.44;101354.09;107807;1292;22001;-76
2021/11/11 01:05:15;;;;;;;127.20;89.60;;;;;;;2.86;77.46;101351.77;107723;1292;21999;-76
2021/11/11 01:07:46;;;;;;;122.00;88.60;;;;;;;2.86;77.41;101353.52;107823;1292;23094;-76
2021/11/11 01:10:17;;;;;;;125.40;90.20;;;;;;;2.88;77.60;101358.98;107371;1296;22018;-76
2021/11/11 01:12:49;;;;;;;122.70;89.50;;;;;;;2.89;77.46;101361.33;107611;1297;23139;-76
2021/11/11 01:15:29;;;;;;;111.00;83.20;;;;;;;2.86;77.18;101364.11;107633;1291;22003;-76
2021/11/11 01:18:02;;;;;;;122.20;87.80;;;;;;;2.84;77.22;101362.32;108359;1285;22185;-76
2021/11/11 01:20:32;;;;;;;116.30;86.70;;;;;;;2.83;77.16;101362.35;108057;1290;22778;-76
2021/11/11 01:23:03;;;;;;;124.50;88.20;;;;;;;2.83;77.10;101361.70;107802;1292;22061;-76
2021/11/11 01:25:37;;;;;;;115.70;86.00;;;;;;;2.79;76.82;101357.58;107565;1295;22131;-76
2021/11/11 01:28:08;;;;;;;114.10;86.30;;;;;;;2.77;76.89;101352.83;107680;1289;22012;-76
2021/11/11 01:30:43;;;;;;;117.40;88.40;;;;;;;2.74;76.83;101354.38;108086;1289;22205;-75
2021/11/11 01:33:23;;;;;;;116.90;86.90;;;;;;;2.70;76.77;101354.96;107516;1297;22008;-76
2021/11/11 01:35:53;;;;;;;110.20;82.70;;;;;;;2.68;76.75;101349.91;107371;1298;23653;-76
2021/11/11 01:38:29;;;;;;;109.30;80.20;;;;;;;2.67;76.72;101347.02;107683;1291;23041;-74
2021/11/11 01:40:59;;;;;;;114.20;85.50;;;;;;;2.67;76.94;101344.22;107790;1291;22044;-75
2021/11/11 01:43:33;;;;;;;105.70;79.10;;;;;;;2.67;77.00;101349.93;107622;1291;23621;-75
2021/11/11 01:46:02;;;;;;;108.40;81.60;;;;;;;2.67;76.93;101341.59;108015;1291;22014;-76
2021/11/11 01:48:32;;;;;;;101.50;75.80;;;;;;;2.67;76.87;101339.70;108033;1291;24469;-74
2021/11/11 01:51:07;;;;;;;102.90;77.70;;;;;;;2.67;76.86;101336.21;107791;1291;22017;-76
2021/11/11 01:53:47;;;;;;;100.70;77.00;;;;;;;2.66;76.97;101338.54;108022;1291;22012;-75
2021/11/11 01:56:22;;;;;;;103.60;76.70;;;;;;;2.65;76.83;101338.95;108022;1291;22081;-75
2021/11/11 01:58:54;;;;;;;99.20;77.20;;;;;;;2.64;76.80;101337.80;108284;1284;22860;-75
2021/11/11 02:01:25;;;;;;;99.40;78.40;;;;;;;2.64;76.89;101337.77;108349;1278;23042;-74
2021/11/11 02:03:57;;;;;;;99.40;75.50;;;;;;;2.66;77.14;101338.73;108864;1278;23525;-75
2021/11/11 02:06:45;;;;;;;88.70;72.20;;;;;;;2.68;77.16;101344.49;108696;1278;22005;-75
2021/11/11 02:09:23;;;;;;;91.60;68.90;;;;;;;2.70;77.20;101348.17;108743;1281;22064;-75
2021/11/11 02:12:21;;;;;;;98.30;74.10;;;;;;;2.74;77.48;101347.45;108567;1281;22142;-75
2021/11/11 02:14:58;;;;;;;92.30;71.70;;;;;;;2.77;77.49;101349.20;108146;1288;22054;-75
2021/11/11 02:17:31;;;;;;;89.70;68.30;;;;;;;2.77;77.22;101344.98;108156;1288;22058;-75
2021/11/11 02:20:28;;;;;;;89.90;70.00;;;;;;;2.77;77.21;101332.95;108174;1288;22011;-75
2021/11/11 02:23:13;;;;;;;86.40;67.40;;;;;;;2.76;76.97;101321.21;108094;1288;22020;-75
2021/11/11 02:26:09;;;;;;;84.40;64.70;;;;;;;2.70;76.72;101323.33;107622;1294;21978;-75
2021/11/11 02:28:46;;;;;;;82.50;64.60;;;;;;;2.65;76.87;101319.84;107095;1300;22027;-75
2021/11/11 02:31:20;;;;;;;86.70;64.40;;;;;;;2.64;77.13;101324.77;108063;1297;22234;-75
2021/11/11 02:34:17;;;;;;;83.70;66.80;;;;;;;2.66;77.27;101321.66;108688;1291;22024;-74
2021/11/11 02:37:06;;;;;;;87.60;68.20;;;;;;;2.70;77.32;101319.31;108227;1297;23081;-74
2021/11/11 02:39:44;;;;;;;90.80;70.50;;;;;;;2.71;77.06;101318.23;106914;1300;22169;-76
2021/11/11 02:42:14;;;;;;;95.40;70.90;;;;;;;2.70;76.97;101316.67;107126;1300;22295;-75
2021/11/11 02:44:44;;;;;;;85.50;65.20;;;;;;;2.70;76.91;101320.17;107342;1295;22002;-75
2021/11/11 02:47:20;;;;;;;84.90;63.80;;;;;;;2.70;76.85;101320.02;107772;1289;22015;-76
2021/11/11 02:49:56;;;;;;;86.50;68.20;;;;;;;2.71;77.07;101315.09;108044;1289;21976;-76
2021/11/11 02:52:28;;;;;;;77.90;61.10;;;;;;;2.72;77.16;101309.80;107959;1291;22019;-76
2021/11/11 02:54:57;;;;;;;81.00;63.50;;;;;;;2.74;77.21;101304.64;107973;1289;22057;-76
2021/11/11 02:57:33;;;;;;;79.10;63.90;;;;;;;2.75;77.18;101300.73;108149;1284;22049;-76
2021/11/11 03:00:26;;;;;;;84.60;66.00;;;;;;;2.74;76.91;101302.89;108072;1291;22088;-75
2021/11/11 03:02:56;;;;;;;85.70;66.30;;;;;;;2.72;76.89;101300.27;108119;1291;22754;-76
2021/11/11 03:05:49;;;;;;;79.10;63.90;;;;;;;2.70;76.86;101296.52;108017;1289;22017;-76
2021/11/11 03:08:18;;;;;;;77.90;62.90;;;;;;;2.71;76.94;101299.97;107554;1295;22045;-76
2021/11/11 03:10:53;;;;;;;77.80;63.90;;;;;;;2.68;76.73;101294.21;107856;1291;23439;-76
2021/11/11 03:13:26;;;;;;;75.30;62.40;;;;;;;2.67;76.86;101295.48;108044;1290;23703;-76
2021/11/11 03:16:04;;;;;;;78.60;64.70;;;;;;;2.69;76.95;101301.80;108056;1290;23746;-76
2021/11/11 03:18:34;;;;;;;72.20;58.50;;;;;;;2.69;76.81;101304.46;108324;1283;22177;-76
2021/11/11 03:21:03;;;;;;;73.60;60.00;;;;;;;2.67;76.71;101305.41;108414;1284;22023;-75
2021/11/11 03:23:36;;;;;;;76.20;61.30;;;;;;;2.66;76.78;101305.80;108294;1285;21990;-76
2021/11/11 03:26:08;;;;;;;71.20;57.30;;;;;;;2.67;76.88;101305.23;108527;1278;24290;-76
2021/11/11 03:28:40;;;;;;;77.00;61.50;;;;;;;2.66;76.75;101303.74;108800;1278;22003;-76
2021/11/11 03:31:10;;;;;;;78.70;61.50;;;;;;;2.63;76.63;101303.91;108775;1278;22240;-75
2021/11/11 03:33:41;;;;;;;73.10;59.50;;;;;;;2.61;76.59;101307.39;108846;1278;23151;-75
2021/11/11 03:36:12;;;;;;;77.00;61.40;;;;;;;2.60;76.65;101304.96;108750;1278;22002;-76
2021/11/11 03:38:41;;;;;;;79.70;60.90;;;;;;;2.60;76.92;101309.50;108735;1277;22415;-75
2021/11/11 03:41:10;;;;;;;72.60;58.70;;;;;;;2.64;76.99;101304.59;108722;1278;23586;-75
2021/11/11 03:43:40;;;;;;;70.30;57.10;;;;;;;2.65;76.91;101298.28;108587;1278;21961;-75
2021/11/11 03:46:14;;;;;;;71.70;58.30;;;;;;;2.67;77.07;101296.56;108804;1278;21978;-76
2021/11/11 03:48:49;;;;;;;68.30;58.10;;;;;;;2.69;77.11;101294.00;108602;1278;22021;-76
2021/11/11 03:51:22;;;;;;;73.90;58.70;;;;;;;2.69;76.90;101288.11;108748;1278;21979;-76
2021/11/11 03:53:52;;;;;;;75.60;60.10;;;;;;;2.66;76.67;101292.63;108224;1285;22041;-75
2021/11/11 03:56:23;;;;;;;69.00;59.40;;;;;;;2.65;76.73;101294.08;108104;1285;23039;-75
2021/11/11 03:58:56;;;;;;;76.20;63.50;;;;;;;2.63;76.73;101289.69;108211;1285;23038;-75
2021/11/11 04:01:26;;;;;;;70.80;62.40;;;;;;;2.59;76.70;101291.31;107599;1291;24489;-75
2021/11/11 04:03:55;;;;;;;73.00;63.00;;;;;;;2.56;76.91;101293.21;107844;1291;23785;-76
2021/11/11 04:06:27;;;;;;;78.10;63.50;;;;;;;2.57;77.01;101289.30;107496;1298;23051;-76
2021/11/11 04:08:59;;;;;;;75.90;60.80;;;;;;;2.60;77.10;101285.52;107505;1295;22012;-76
2021/11/11 04:11:31;;;;;;;69.20;58.90;;;;;;;2.58;76.86;101274.67;107641;1289;22116;-76
2021/11/11 04:14:02;;;;;;;68.00;59.70;;;;;;;2.52;76.68;101272.05;108037;1289;22995;-75
2021/11/11 04:16:34;;;;;;;72.60;60.10;;;;;;;2.46;76.62;101271.22;108018;1289;22027;-75
2021/11/11 04:19:03;;;;;;;71.00;59.50;;;;;;;2.41;76.70;101277.29;107678;1291;21996;-74
2021/11/11 04:21:34;;;;;;;74.50;61.90;;;;;;;2.37;76.84;101282.39;108120;1288;22180;-75
2021/11/11 04:24:04;;;;;;;70.90;58.90;;;;;;;2.35;77.00;101279.54;108117;1286;23618;-75
2021/11/11 04:26:46;;;;;;;70.50;59.60;;;;;;;2.35;77.01;101277.09;108086;1288;21999;-75
2021/11/11 04:29:22;;;;;;;76.60;62.30;;;;;;;2.33;76.99;101276.85;108091;1288;23046;-75
2021/11/11 04:32:02;;;;;;;76.20;61.40;;;;;;;2.28;76.71;101282.21;107922;1291;23207;-75
2021/11/11 04:34:34;;;;;;;73.30;59.70;;;;;;;2.23;76.92;101282.35;108001;1291;22276;-75
2021/11/11 05:01:16;;;;;;;83.80;68.00;;;;;;;2.23;77.21;101279.73;108778;1278;23713;-74
2021/11/11 05:03:47;;;;;;;87.20;66.80;;;;;;;2.25;77.41;101282.06;108756;1278;22087;-74
2021/11/11 05:06:18;;;;;;;87.60;69.30;;;;;;;2.25;77.39;101279.44;108864;1278;22064;-74
2021/11/11 05:08:48;;;;;;;86.10;73.10;;;;;;;2.26;77.54;101284.06;108793;1278;22218;-74
2021/11/11 05:11:21;;;;;;;92.10;75.00;;;;;;;2.27;77.28;101277.41;108728;1278;22056;-74
2021/11/11 05:13:53;;;;;;;91.60;77.90;;;;;;;2.25;77.15;101271.59;108729;1278;22365;-75
2021/11/11 05:16:23;;;;;;;93.10;79.70;;;;;;;2.26;77.25;101259.95;108782;1278;22679;-74
2021/11/11 05:18:56;;;;;;;90.00;78.30;;;;;;;2.24;77.21;101257.10;108723;1277;23033;-75
2021/11/11 05:21:26;;;;;;;90.30;75.40;;;;;;;2.24;77.36;101255.55;108575;1278;22009;-74
2021/11/11 05:23:55;;;;;;;86.10;71.80;;;;;;;2.23;77.43;101260.08;108730;1278;22097;-76
2021/11/11 05:26:26;;;;;;;83.40;71.70;;;;;;;2.24;77.45;101257.78;108705;1278;22114;-76
2021/11/11 05:28:57;;;;;;;79.90;69.90;;;;;;;2.25;77.46;101257.54;108751;1278;22067;-76
2021/11/11 05:31:28;;;;;;;78.20;66.80;;;;;;;2.25;77.50;101256.17;108421;1285;22012;-76
2021/11/11 05:34:00;;;;;;;75.50;65.40;;;;;;;2.24;77.43;101254.28;108268;1285;22134;-76
2021/11/11 05:36:33;;;;;;;76.60;64.60;;;;;;;2.20;77.30;101258.35;108107;1288;22021;-75
2021/11/11 05:39:05;;;;;;;72.90;64.70;;;;;;;2.18;77.39;101263.20;108209;1288;21999;-75
2021/11/11 05:41:37;;;;;;;77.00;63.40;;;;;;;2.18;77.59;101265.45;108378;1285;23709;-76
2021/11/11 05:44:09;;;;;;;81.80;65.50;;;;;;;2.19;77.65;101270.79;108096;1286;23796;-76
2021/11/11 05:46:42;;;;;;;76.60;64.30;;;;;;;2.19;77.53;101275.11;108405;1284;22020;-76
2021/11/11 05:49:14;;;;;;;67.40;57.20;;;;;;;2.20;77.50;101276.46;108219;1286;23698;-76
2021/11/11 05:51:46;;;;;;;74.20;61.60;;;;;;;2.21;77.57;101275.55;108380;1285;24142;-75
2021/11/11 05:54:20;;;;;;;74.30;61.80;;;;;;;2.21;77.50;101277.39;108431;1285;22051;-75
2021/11/11 05:56:49;;;;;;;69.40;58.70;;;;;;;2.22;77.58;101271.45;108365;1278;169527;-76
2021/11/11 05:59:21;;;;;;;67.60;60.30;;;;;;;2.24;77.81;101268.35;108743;1278;23045;-75
2021/11/11 06:01:50;;;;;;;71.90;59.30;;;;;;;2.28;77.80;101267.44;108843;1278;23586;-75
2021/11/11 06:04:20;;;;;;;69.20;57.80;;;;;;;2.29;77.75;101265.30;108752;1278;22007;-75
2021/11/11 06:06:52;;;;;;;66.70;58.40;;;;;;;2.29;77.70;101266.66;108756;1278;22019;-75
2021/11/11 06:09:22;;;;;;;66.00;57.00;;;;;;;2.31;77.70;101274.57;108812;1278;23572;-75
2021/11/11 06:11:51;;;;;;;67.90;59.10;;;;;;;2.32;77.72;101273.77;108765;1278;22036;-75
2021/11/11 06:14:21;;;;;;;65.90;56.80;;;;;;;2.33;77.53;101275.14;108781;1278;22119;-75
2021/11/11 06:16:51;;;;;;;62.60;54.80;;;;;;;2.31;77.42;101277.52;108954;1278;21986;-75
2021/11/11 06:19:20;;;;;;;67.50;57.00;;;;;;;2.29;77.30;101274.67;108736;1278;22979;-75
2021/11/11 06:21:49;;;;;;;67.30;56.60;;;;;;;2.29;77.29;101276.27;108205;1283;23012;-75
2021/11/11 06:24:20;;;;;;;70.90;61.90;;;;;;;2.27;77.27;101285.20;108504;1283;23612;-75
2021/11/11 06:26:49;;;;;;;67.00;59.80;;;;;;;2.27;77.28;101285.05;108252;1283;21985;-75
2021/11/11 06:29:18;;;;;;;74.50;64.40;;;;;;;2.27;77.33;101285.54;108376;1283;22126;-75
2021/11/11 06:31:49;;;;;;;72.30;64.00;;;;;;;2.30;77.53;101282.98;108265;1283;22126;-75
2021/11/11 06:34:29;;;;;;;78.90;70.20;;;;;;;2.27;77.32;101285.42;108395;1283;21992;-74
2021/11/11 06:36:58;;;;;;;83.00;74.30;;;;;;;2.20;77.20;101282.34;108177;1289;23063;-75
2021/11/11 06:39:28;;;;;;;80.60;72.20;;;;;;;2.13;77.10;101276.69;108178;1283;23586;-75
2021/11/11 06:41:57;;;;;;;80.50;71.80;;;;;;;2.08;77.32;101286.02;108392;1283;24315;-75
2021/11/11 06:44:26;;;;;;;82.10;72.20;;;;;;;2.10;77.79;101283.48;108393;1286;23720;-74
2021/11/11 06:46:55;;;;;;;87.20;76.30;;;;;;;2.15;77.89;101282.80;108158;1287;23659;-75
2021/11/11 06:49:27;;;;;;;77.70;69.60;;;;;;;2.20;78.05;101279.23;107707;1291;23076;-75
2021/11/11 06:51:59;;;;;;;80.20;71.60;;;;;;;2.22;78.06;101282.75;107950;1291;23208;-75
2021/11/11 06:54:29;;;;;;;106.20;91.00;;;;;;;2.27;78.29;101287.83;107824;1288;23592;-75
2021/11/11 06:56:58;;;;;;;83.70;72.90;;;;;;;2.33;78.29;101293.38;108186;1288;23858;-76
2021/11/11 06:59:31;;;;;;;85.80;76.20;;;;;;;2.43;78.51;101291.76;108150;1288;23167;-75
2021/11/11 07:02:02;;;;;;;79.30;70.40;;;;;;;2.53;78.65;101287.86;108198;1285;22083;-75
2021/11/11 07:04:32;;;;;;;110.80;98.90;;;;;;;2.64;78.71;101287.90;108198;1285;22015;-75
2021/11/11 07:07:04;;;;;;;76.40;65.60;;;;;;;2.72;78.67;101288.42;108486;1278;23657;-75
2021/11/11 07:09:33;;;;;;;76.60;67.20;;;;;;;2.74;78.12;101286.86;108606;1278;21995;-75
2021/11/11 07:12:04;;;;;;;73.90;62.70;;;;;;;2.76;78.05;101286.40;108824;1276;23579;-76
2021/11/11 07:14:33;;;;;;;73.40;65.20;;;;;;;2.79;77.96;101284.52;108828;1278;21985;-76
2021/11/11 07:17:04;;;;;;;80.10;68.30;;;;;;;2.82;78.04;101284.27;108783;1278;22395;-76
2021/11/11 07:19:39;;;;;;;91.90;82.20;;;;;;;2.89;78.08;101283.36;108675;1277;22008;-75
2021/11/11 07:22:09;;;;;;;94.90;84.50;;;;;;;2.92;77.83;101284.92;108609;1280;23679;-76
2021/11/11 07:24:38;;;;;;;96.70;84.60;;;;;;;2.95;77.79;101284.73;108488;1282;23784;-76
2021/11/11 07:27:07;;;;;;;89.00;78.40;;;;;;;3.01;77.93;101283.49;108444;1282;22000;-76
2021/11/11 07:29:39;;;;;;;87.20;77.70;;;;;;;3.06;77.85;101286.31;108083;1287;21998;-76
2021/11/11 07:32:09;;;;;;;95.60;78.50;;;;;;;3.11;77.77;101283.91;108239;1288;23634;-77
2021/11/11 07:34:40;;;;;;;111.20;86.20;;;;;;;3.19;78.06;101278.88;108096;1288;23721;-77
2021/11/11 07:37:14;;;;;;;97.30;73.70;;;;;;;3.28;78.05;101274.64;107758;1294;23643;-76
2021/11/11 07:39:43;;;;;;;93.90;80.30;;;;;;;3.26;77.41;101275.27;107747;1294;22761;-77
2021/11/11 07:42:13;;;;;;;89.50;75.40;;;;;;;3.28;77.61;101275.70;107658;1290;22755;-77
2021/11/11 07:44:51;;;;;;;89.10;76.00;;;;;;;3.34;77.55;101272.55;108070;1289;23722;-77
2021/11/11 07:47:27;;;;;;;136.70;108.00;;;;;;;3.41;77.73;101269.33;108217;1285;23699;-77
2021/11/11 07:50:01;;;;;;;134.60;90.60;;;;;;;3.44;77.36;101260.93;108422;1284;21986;-76
2021/11/11 07:52:31;;;;;;;113.10;82.70;;;;;;;3.40;77.11;101263.27;108446;1285;22319;-76
2021/11/11 07:55:05;;;;;;;95.70;75.50;;;;;;;3.39;77.26;101266.79;108540;1278;21997;-76
2021/11/11 07:57:35;;;;;;;104.50;75.10;;;;;;;3.44;77.50;101262.84;108481;1283;22540;-77
2021/11/11 08:00:09;;;;;;;93.70;75.40;;;;;;;3.52;77.72;101266.30;108456;1283;23136;-76
2021/11/11 08:02:46;;;;;;;86.40;70.20;;;;;;;3.60;77.72;101262.67;108517;1281;21992;-77
2021/11/11 08:05:21;;;;;;;86.70;70.20;;;;;;;3.65;77.71;101263.88;108524;1284;22960;-77
2021/11/11 08:07:52;;;;;;;98.70;76.40;;;;;;;3.75;77.96;101259.70;108494;1284;21989;-78
2021/11/11 08:10:23;;;;;;;103.20;79.70;;;;;;;3.91;78.26;101257.82;108500;1280;23582;-77
2021/11/11 08:12:52;;;;;;;87.70;71.20;;;;;;;4.01;77.89;101255.20;108410;1283;23774;-77
2021/11/11 08:15:22;;;;;;;84.20;74.00;;;;;;;4.09;77.68;101256.77;108351;1284;23067;-77
2021/11/11 08:17:53;;;;;;;100.70;76.80;;;;;;;4.16;77.57;101251.39;108389;1284;22047;-78
2021/11/11 08:20:22;;;;;;;91.00;75.50;;;;;;;4.23;77.43;101246.02;107929;1291;22125;-76
2021/11/11 08:22:51;;;;;;;158.90;134.70;;;;;;;4.35;77.52;101246.28;108127;1289;22040;-76
2021/11/11 08:25:24;;;;;;;170.20;139.10;;;;;;;4.51;77.66;101249.16;107886;1294;22026;-76
2021/11/11 08:27:54;;;;;;;126.70;101.90;;;;;;;4.70;77.85;101252.76;107957;1294;22022;-76
2021/11/11 08:30:24;;;;;;;98.00;83.70;;;;;;;4.89;77.81;101258.91;107895;1294;23599;-76
2021/11/11 08:32:53;;;;;;;104.40;85.70;;;;;;;5.05;77.55;101257.41;107710;1291;22029;-76
2021/11/11 08:35:25;;;;;;;95.50;83.60;;;;;;;5.24;77.49;101258.87;108211;1287;22014;-77
2021/11/11 08:37:54;;;;;;;115.10;93.00;;;;;;;5.42;77.32;101252.11;108805;1283;22005;-76
2021/11/11 08:40:25;;;;;;;115.60;93.70;;;;;;;5.59;77.03;101251.23;108761;1284;21992;-76
2021/11/11 08:43:03;;;;;;;98.90;82.10;;;;;;;5.76;76.78;101245.60;108337;1285;21990;-76
2021/11/11 08:45:42;;;;;;;94.20;78.10;;;;;;;5.94;76.47;101248.77;108258;1285;21991;-76
2021/11/11 08:48:12;;;;;;;88.60;75.80;;;;;;;6.06;75.91;101247.35;108387;1286;21993;-76
2021/11/11 08:50:42;;;;;;;90.90;78.50;;;;;;;6.22;75.86;101248.97;108543;1285;22011;-76
2021/11/11 08:53:17;;;;;;;80.00;67.10;;;;;;;6.38;75.69;101251.04;108329;1285;22029;-77
2021/11/11 08:55:47;;;;;;;85.80;72.00;;;;;;;6.50;75.21;101243.64;108181;1285;22667;-79
2021/11/11 08:58:16;;;;;;;78.00;67.80;;;;;;;6.63;75.06;101251.88;108528;1282;23687;-78
2021/11/11 09:00:52;;;;;;;67.60;59.10;;;;;;;6.78;74.76;101248.64;108490;1278;24304;-78
2021/11/11 09:03:28;;;;;;;61.40;54.70;;;;;;;6.90;74.39;101246.40;108639;1278;21986;-78
2021/11/11 09:06:06;;;;;;;61.00;54.30;;;;;;;7.02;73.93;101244.80;108701;1278;21970;-80
2021/11/11 09:08:36;;;;;;;56.20;50.20;;;;;;;7.12;73.48;101248.91;108391;1285;22560;-78
2021/11/11 09:11:06;;;;;;;62.20;53.20;;;;;;;7.23;73.42;101249.77;108218;1285;24319;-78
2021/11/11 09:13:36;;;;;;;55.20;49.60;;;;;;;7.33;72.93;101248.58;108389;1285;22429;-78
2021/11/11 09:16:05;;;;;;;56.50;50.40;;;;;;;7.43;72.56;101248.67;108285;1285;22020;-78
2021/11/11 09:18:35;;;;;;;54.20;48.50;;;;;;;7.55;72.51;101247.51;108300;1285;22039;-78
2021/11/11 09:21:13;;;;;;;56.60;50.40;;;;;;;7.66;72.21;101250.65;108388;1285;22026;-77
2021/11/11 09:24:02;;;;;;;55.20;49.20;;;;;;;7.82;72.15;101251.59;108110;1289;22017;-77
2021/11/11 09:26:39;;;;;;;56.30;50.40;;;;;;;7.97;71.67;101251.90;107881;1285;21986;-78
2021/11/11 09:29:09;;;;;;;58.80;51.10;;;;;;;8.09;71.36;101252.08;107951;1291;23763;-77
2021/11/11 09:31:39;;;;;;;54.80;47.50;;;;;;;8.22;70.95;101255.73;107984;1291;22003;-77
2021/11/11 09:34:12;;;;;;;56.20;49.40;;;;;;;8.29;70.29;101254.97;107914;1292;22935;-78
2021/11/11 09:36:41;;;;;;;55.40;49.60;;;;;;;8.38;70.02;101246.52;107588;1297;23605;-77
2021/11/11 09:39:11;;;;;;;55.20;49.50;;;;;;;8.46;69.70;101244.39;107308;1298;22964;-77
2021/11/11 09:41:45;;;;;;;52.10;46.60;;;;;;;8.55;69.42;101241.86;107448;1294;22061;-78
2021/11/11 09:44:24;;;;;;;54.30;48.50;;;;;;;8.64;69.19;101239.46;107631;1292;23144;-78
2021/11/11 09:46:57;;;;;;;59.40;53.00;;;;;;;8.81;69.35;101250.19;107936;1289;24391;-78
2021/11/11 09:49:28;;;;;;;57.40;51.50;;;;;;;8.94;68.92;101252.87;108130;1289;23088;-78
2021/11/11 09:51:59;;;;;;;55.10;49.40;;;;;;;9.07;68.44;101251.89;108211;1285;22030;-77
2021/11/11 09:59:55;;;;;;;61.10;54.70;;;;;;;9.57;68.58;101244.77;108404;1285;22076;-78
2021/11/11 10:02:30;;;;;;;54.80;46.80;;;;;;;9.85;68.49;101249.73;108214;1286;23700;-77
2021/11/11 10:05:05;;;;;;;47.70;43.00;;;;;;;10.07;67.78;101252.33;108196;1285;23055;-78
2021/11/11 10:07:35;;;;;;;46.60;42.00;;;;;;;10.20;66.39;101254.33;108347;1285;22796;-78
2021/11/11 10:10:09;;;;;;;44.30;39.90;;;;;;;10.26;65.70;101256.55;108393;1283;22766;-77
2021/11/11 10:12:41;;;;;;;42.70;38.50;;;;;;;10.33;65.25;101257.89;108478;1285;23621;-78
2021/11/11 10:15:13;;;;;;;40.00;36.20;;;;;;;10.41;64.83;101260.66;108429;1285;22004;-78
2021/11/11 10:17:44;;;;;;;42.10;37.80;;;;;;;10.47;64.58;101257.21;108351;1286;22509;-77
2021/11/11 10:20:15;;;;;;;40.60;36.20;;;;;;;10.61;65.05;101247.25;108440;1283;21998;-78
2021/11/11 10:22:49;;;;;;;40.70;36.50;;;;;;;10.83;65.13;101246.36;108066;1291;23705;-78
2021/11/11 10:25:21;;;;;;;40.90;36.90;;;;;;;11.00;64.22;101244.90;107797;1291;22024;-77
2021/11/11 10:27:59;;;;;;;39.70;35.70;;;;;;;11.21;63.80;101241.50;107634;1295;22620;-78
2021/11/11 10:30:56;;;;;;;39.70;35.90;;;;;;;11.47;64.15;101241.95;107812;1291;22070;-79
2021/11/11 10:33:35;;;;;;;36.50;33.00;;;;;;;11.83;64.93;101241.38;107928;1291;23125;-78
2021/11/11 10:36:07;;;;;;;36.80;33.10;;;;;;;12.12;64.40;101239.80;107504;1298;23839;-76
2021/11/11 10:38:37;;;;;;;37.00;33.50;;;;;;;12.43;62.97;101241.46;107156;1300;22778;-79
2021/11/11 10:41:17;;;;;;;35.80;32.20;;;;;;;12.75;62.04;101237.73;106909;1300;24435;-78
2021/11/11 10:43:52;;;;;;;38.10;34.40;;;;;;;12.94;59.90;101240.72;107153;1300;22202;-77
2021/11/11 10:46:58;;;;;;;34.70;31.20;;;;;;;13.07;59.11;101241.69;107516;1294;24342;-77
2021/11/11 10:49:40;;;;;;;34.00;30.70;;;;;;;13.25;59.28;101243.98;107701;1292;22030;-78
2021/11/11 10:52:48;;;;;;;42.40;38.20;;;;;;;13.53;58.86;101239.41;106961;1303;22192;-79
2021/11/11 10:55:28;;;;;;;40.40;36.50;;;;;;;13.63;56.58;101236.56;107491;1300;22761;-78
2021/11/11 10:58:14;;;;;;;39.90;36.00;;;;;;;13.62;56.35;101235.89;107720;1294;23796;-78
2021/11/11 11:00:54;;;;;;;43.30;39.00;;;;;;;13.61;55.41;101233.23;108265;1286;22018;-77
2021/11/11 11:03:31;;;;;;;42.40;38.20;;;;;;;13.42;54.72;101232.33;108306;1285;21984;-76
2021/11/11 11:06:08;;;;;;;36.40;32.80;;;;;;;13.21;54.69;101230.77;108234;1286;23640;-76
2021/11/11 11:09:00;;;;;;;36.80;33.20;;;;;;;12.98;54.36;101231.86;108134;1288;21997;-77
2021/11/11 11:11:36;;;;;;;40.10;36.10;;;;;;;12.70;54.58;101231.98;108739;1280;22071;-74
2021/11/11 11:14:18;;;;;;;39.90;35.90;;;;;;;12.44;54.84;101234.31;108604;1278;23020;-75
2021/11/11 11:16:50;;;;;;;43.20;38.70;;;;;;;12.19;55.04;101233.45;108601;1280;23602;-76
2021/11/11 11:19:20;;;;;;;41.70;37.40;;;;;;;11.94;55.33;101226.96;108580;1278;24315;-76
2021/11/11 11:21:54;;;;;;;45.40;40.90;;;;;;;11.71;55.79;101232.59;108661;1278;24363;-77
2021/11/11 11:24:32;;;;;;;46.00;41.50;;;;;;;11.50;56.41;101232.42;108628;1278;22038;-76
2021/11/11 11:27:05;;;;;;;44.20;39.80;;;;;;;11.31;56.77;101229.91;108509;1280;21985;-77
2021/11/11 11:29:59;;;;;;;45.40;41.00;;;;;;;11.14;57.38;101232.41;108631;1280;22416;-77
2021/11/11 11:32:31;;;;;;;48.00;42.90;;;;;;;10.97;57.80;101234.35;108622;1278;21968;-76
2021/11/11 11:35:04;;;;;;;47.80;42.80;;;;;;;10.83;58.33;101228.94;108132;1285;22178;-77
2021/11/11 11:37:36;;;;;;;44.00;39.40;;;;;;;10.75;58.67;101226.04;108220;1285;22008;-77
2021/11/11 11:40:16;;;;;;;43.30;38.80;;;;;;;10.65;58.97;101223.11;108269;1285;22072;-77
2021/11/11 11:42:51;;;;;;;46.20;41.50;;;;;;;10.59;59.60;101214.72;108237;1285;23705;-77
2021/11/11 11:45:23;;;;;;;47.30;42.50;;;;;;;10.55;59.79;101220.39;108421;1285;23898;-76
2021/11/11 11:47:55;;;;;;;52.10;46.60;;;;;;;10.53;60.03;101227.27;108455;1283;21974;-77
2021/11/11 11:50:35;;;;;;;49.80;44.60;;;;;;;10.49;60.13;101223.94;108208;1285;22006;-77
2021/11/11 11:53:12;;;;;;;47.80;42.70;;;;;;;10.47;60.43;101223.09;108411;1285;23730;-76
2021/11/11 11:55:51;;;;;;;46.30;41.60;;;;;;;10.48;60.71;101211.34;108501;1285;22065;-77
2021/11/11 11:58:41;;;;;;;50.70;45.40;;;;;;;10.46;60.61;101207.16;108026;1291;22317;-77
2021/11/11 12:01:37;;;;;;;49.90;43.90;;;;;;;10.44;60.91;101197.13;108385;1285;22127;-76
2021/11/11 12:40:03;;;;;;;43.50;39.10;;;;;;;10.03;62.23;101195.16;108509;1283;22155;-79